sensor_id;sensor_type;location;lat;lon;timestamp;pressure;altitude;pressure_sealevel;temperature;humidity
73821;BME280;62150;43.582;1.456;2022-07-12T05:49:50;100233.38;;;23.81;53.89
73821;BME280;62150;43.582;1.456;2022-07-12T05:52:18;100236.97;;;23.80;53.71
73821;BME280;62150;43.582;1.456;2022-07-12T05:55:03;100237.25;;;23.77;54.11
73821;BME280;62150;43.582;1.456;2022-07-12T05:57:30;100234.47;;;23.79;53.38
73821;BME280;62150;43.582;1.456;2022-07-12T05:59:58;100239.84;;;23.87;52.85
73821;BME280;62150;43.582;1.456;2022-07-12T06:02:25;100242.69;;;23.93;53.27
73821;BME280;62150;43.582;1.456;2022-07-12T06:04:54;100234.97;;;23.92;53.10
73821;BME280;62150;43.582;1.456;2022-07-12T06:07:22;100234.06;;;23.83;53.62
73821;BME280;62150;43.582;1.456;2022-07-12T06:09:49;100241.59;;;23.96;52.07
73821;BME280;62150;43.582;1.456;2022-07-12T06:12:17;100238.59;;;23.91;53.75
73821;BME280;62150;43.582;1.456;2022-07-12T06:14:44;100232.53;;;23.81;53.35
73821;BME280;62150;43.582;1.456;2022-07-12T06:17:12;100245.94;;;23.87;53.53
73821;BME280;62150;43.582;1.456;2022-07-12T06:19:39;100245.72;;;23.98;53.05
73821;BME280;62150;43.582;1.456;2022-07-12T06:22:08;100244.63;;;24.01;53.75
73821;BME280;62150;43.582;1.456;2022-07-12T06:24:36;100250.41;;;24.04;52.58
73821;BME280;62150;43.582;1.456;2022-07-12T06:27:04;100250.00;;;24.09;53.52
73821;BME280;62150;43.582;1.456;2022-07-12T06:29:31;100240.59;;;24.06;54.22
73821;BME280;62150;43.582;1.456;2022-07-12T06:31:59;100247.91;;;24.13;52.83
73821;BME280;62150;43.582;1.456;2022-07-12T06:34:26;100254.91;;;24.22;52.84
73821;BME280;62150;43.582;1.456;2022-07-12T06:36:54;100254.09;;;25.21;50.96
73821;BME280;62150;43.582;1.456;2022-07-12T06:39:23;100254.88;;;26.43;48.71
73821;BME280;62150;43.582;1.456;2022-07-12T06:41:50;100256.91;;;27.24;46.60
73821;BME280;62150;43.582;1.456;2022-07-12T06:44:18;100265.94;;;27.78;44.87
73821;BME280;62150;43.582;1.456;2022-07-12T06:46:45;100257.47;;;28.07;43.51
73821;BME280;62150;43.582;1.456;2022-07-12T06:49:13;100270.22;;;28.51;43.08
73821;BME280;62150;43.582;1.456;2022-07-12T06:51:40;100281.00;;;28.41;43.43
73821;BME280;62150;43.582;1.456;2022-07-12T06:54:08;100288.22;;;28.47;43.47
73821;BME280;62150;43.582;1.456;2022-07-12T06:56:37;100286.56;;;28.46;43.08
73821;BME280;62150;43.582;1.456;2022-07-12T06:59:05;100290.81;;;28.63;42.27
73821;BME280;62150;43.582;1.456;2022-07-12T07:01:37;100293.69;;;28.46;42.65
73821;BME280;62150;43.582;1.456;2022-07-12T07:04:04;100293.50;;;28.47;42.42
73821;BME280;62150;43.582;1.456;2022-07-12T07:06:32;100299.06;;;28.68;42.51
73821;BME280;62150;43.582;1.456;2022-07-12T07:08:59;100306.56;;;28.80;41.74
73821;BME280;62150;43.582;1.456;2022-07-12T07:11:27;100300.97;;;28.83;42.42
73821;BME280;62150;43.582;1.456;2022-07-12T07:13:56;100297.72;;;28.33;43.53
73821;BME280;62150;43.582;1.456;2022-07-12T07:16:23;100302.00;;;28.74;43.04
73821;BME280;62150;43.582;1.456;2022-07-12T07:18:51;100302.34;;;28.71;42.94
73821;BME280;62150;43.582;1.456;2022-07-12T07:21:18;100305.91;;;28.86;43.21
73821;BME280;62150;43.582;1.456;2022-07-12T07:23:46;100306.25;;;28.83;43.51
73821;BME280;62150;43.582;1.456;2022-07-12T07:26:13;100305.88;;;28.94;42.79
73821;BME280;62150;43.582;1.456;2022-07-12T07:28:41;100291.97;;;29.00;42.65
73821;BME280;62150;43.582;1.456;2022-07-12T07:31:24;100300.69;;;28.69;42.83
73821;BME280;62150;43.582;1.456;2022-07-12T07:33:53;100309.94;;;28.74;43.33
73821;BME280;62150;43.582;1.456;2022-07-12T07:36:21;100302.00;;;28.74;42.69
73821;BME280;62150;43.582;1.456;2022-07-12T07:38:48;100298.78;;;28.47;41.91
73821;BME280;62150;43.582;1.456;2022-07-12T07:41:16;100294.47;;;28.54;42.39
73821;BME280;62150;43.582;1.456;2022-07-12T07:43:43;100300.63;;;28.47;42.69
73821;BME280;62150;43.582;1.456;2022-07-12T07:46:11;100295.59;;;28.68;42.19
73821;BME280;62150;43.582;1.456;2022-07-12T07:48:40;100294.81;;;28.51;42.21
73821;BME280;62150;43.582;1.456;2022-07-12T07:51:07;100291.84;;;28.54;42.30
73821;BME280;62150;43.582;1.456;2022-07-12T07:53:35;100304.94;;;28.79;41.31
73821;BME280;62150;43.582;1.456;2022-07-12T07:56:03;100301.03;;;28.66;41.49
73821;BME280;62150;43.582;1.456;2022-07-12T07:58:30;100302.00;;;28.74;41.26
73821;BME280;62150;43.582;1.456;2022-07-12T08:00:58;100304.91;;;28.87;41.93
73821;BME280;62150;43.582;1.456;2022-07-12T08:03:25;100298.19;;;29.07;41.35
73821;BME280;62150;43.582;1.456;2022-07-12T08:05:54;100299.25;;;28.98;40.42
73821;BME280;62150;43.582;1.456;2022-07-12T08:08:23;100298.72;;;29.02;39.52
73821;BME280;62150;43.582;1.456;2022-07-12T08:10:51;100306.78;;;29.09;40.36
73821;BME280;62150;43.582;1.456;2022-07-12T08:13:19;100307.19;;;28.98;40.58
73821;BME280;62150;43.582;1.456;2022-07-12T08:15:46;100299.53;;;29.03;39.73
73821;BME280;62150;43.582;1.456;2022-07-12T08:18:14;100302.75;;;29.13;39.68
73821;BME280;62150;43.582;1.456;2022-07-12T08:20:42;100299.13;;;29.37;38.83
73821;BME280;62150;43.582;1.456;2022-07-12T08:23:11;100294.66;;;29.60;38.66
73821;BME280;62150;43.582;1.456;2022-07-12T08:25:39;100300.06;;;29.82;37.87
73821;BME280;62150;43.582;1.456;2022-07-12T08:28:06;100303.00;;;29.87;37.68
73821;BME280;62150;43.582;1.456;2022-07-12T08:30:34;100296.88;;;29.86;38.36
73821;BME280;62150;43.582;1.456;2022-07-12T08:33:02;100302.50;;;30.21;37.97
73821;BME280;62150;43.582;1.456;2022-07-12T08:35:29;100303.44;;;30.28;38.08
73821;BME280;62150;43.582;1.456;2022-07-12T08:37:57;100303.63;;;30.12;38.28
73821;BME280;62150;43.582;1.456;2022-07-12T08:40:26;100302.50;;;30.21;38.10
73821;BME280;62150;43.582;1.456;2022-07-12T08:42:57;100298.31;;;30.26;37.20
73821;BME280;62150;43.582;1.456;2022-07-12T08:45:26;100305.81;;;30.38;37.92
73821;BME280;62150;43.582;1.456;2022-07-12T08:47:54;100306.25;;;30.92;37.52
73821;BME280;62150;43.582;1.456;2022-07-12T08:50:22;100291.03;;;31.15;36.40
73821;BME280;62150;43.582;1.456;2022-07-12T08:52:54;100299.63;;;31.17;36.54
73821;BME280;62150;43.582;1.456;2022-07-12T08:55:26;100297.22;;;31.44;36.47
73821;BME280;62150;43.582;1.456;2022-07-12T08:57:56;100290.69;;;31.46;36.18
73821;BME280;62150;43.582;1.456;2022-07-12T09:00:25;100291.81;;;31.58;35.34
73821;BME280;62150;43.582;1.456;2022-07-12T09:02:55;100295.81;;;31.48;34.96
73821;BME280;62150;43.582;1.456;2022-07-12T09:05:25;100303.78;;;31.69;34.66
73821;BME280;62150;43.582;1.456;2022-07-12T09:08:03;100306.63;;;31.68;34.55
73821;BME280;62150;43.582;1.456;2022-07-12T09:10:34;100306.22;;;31.98;34.52
73821;BME280;62150;43.582;1.456;2022-07-12T09:13:02;100309.88;;;32.25;34.12
73821;BME280;62150;43.582;1.456;2022-07-12T09:15:29;100314.28;;;32.12;34.80
73821;BME280;62150;43.582;1.456;2022-07-12T09:17:59;100310.69;;;32.26;34.97
73821;BME280;62150;43.582;1.456;2022-07-12T09:20:27;100313.75;;;32.57;33.45
73821;BME280;62150;43.582;1.456;2022-07-12T09:22:57;100313.81;;;32.77;32.49
73821;BME280;62150;43.582;1.456;2022-07-12T09:25:25;100310.97;;;32.79;32.16
73821;BME280;62150;43.582;1.456;2022-07-12T09:27:56;100320.44;;;33.01;32.29
73821;BME280;62150;43.582;1.456;2022-07-12T09:30:25;100312.25;;;33.03;31.92
73821;BME280;62150;43.582;1.456;2022-07-12T09:32:58;100314.47;;;32.92;31.44
73821;BME280;62150;43.582;1.456;2022-07-12T09:35:52;100317.59;;;33.09;30.77
73821;BME280;62150;43.582;1.456;2022-07-12T09:38:37;100317.81;;;33.21;31.84
73821;BME280;62150;43.582;1.456;2022-07-12T09:41:06;100316.81;;;33.28;31.60
73821;BME280;62150;43.582;1.456;2022-07-12T09:43:35;100313.50;;;33.13;32.85
73821;BME280;62150;43.582;1.456;2022-07-12T09:46:02;100322.56;;;33.65;32.25
73821;BME280;62150;43.582;1.456;2022-07-12T09:48:30;100324.63;;;33.63;31.84
73821;BME280;62150;43.582;1.456;2022-07-12T09:50:58;100322.19;;;33.55;30.79
73821;BME280;62150;43.582;1.456;2022-07-12T09:53:30;100315.22;;;33.60;31.32
73821;BME280;62150;43.582;1.456;2022-07-12T09:56:03;100307.59;;;34.04;30.43
73821;BME280;62150;43.582;1.456;2022-07-12T09:58:34;100305.38;;;33.94;30.69
73821;BME280;62150;43.582;1.456;2022-07-12T10:01:03;100316.03;;;33.87;30.27
73821;BME280;62150;43.582;1.456;2022-07-12T10:03:35;100314.75;;;34.16;29.93
73821;BME280;62150;43.582;1.456;2022-07-12T10:06:03;100312.03;;;34.36;30.72
73821;BME280;62150;43.582;1.456;2022-07-12T10:08:31;100313.84;;;34.49;29.73
73821;BME280;62150;43.582;1.456;2022-07-12T10:10:59;100309.59;;;34.73;29.01
73821;BME280;62150;43.582;1.456;2022-07-12T10:13:26;100315.91;;;34.40;29.77
73821;BME280;62150;43.582;1.456;2022-07-12T10:15:59;100314.09;;;34.79;29.17
73821;BME280;62150;43.582;1.456;2022-07-12T10:18:29;100312.84;;;34.88;30.29
73821;BME280;62150;43.582;1.456;2022-07-12T10:20:57;100312.00;;;35.25;29.41
73821;BME280;62150;43.582;1.456;2022-07-12T10:23:31;100313.22;;;35.30;28.62
73821;BME280;62150;43.582;1.456;2022-07-12T10:26:23;100308.31;;;35.51;28.21
73821;BME280;62150;43.582;1.456;2022-07-12T10:29:00;100305.44;;;35.53;28.68
73821;BME280;62150;43.582;1.456;2022-07-12T10:31:29;100305.00;;;35.56;28.20
73821;BME280;62150;43.582;1.456;2022-07-12T10:34:08;100305.44;;;35.53;27.51
73821;BME280;62150;43.582;1.456;2022-07-12T10:40:19;100301.88;;;35.84;27.38
73821;BME280;62150;43.582;1.456;2022-07-12T10:43:14;100293.66;;;35.60;27.62
73821;BME280;62150;43.582;1.456;2022-07-12T10:45:43;100296.63;;;36.14;26.63
73821;BME280;62150;43.582;1.456;2022-07-12T10:48:21;100297.63;;;36.38;26.14
73821;BME280;62150;43.582;1.456;2022-07-12T10:50:55;100289.75;;;36.73;25.83
73821;BME280;62150;43.582;1.456;2022-07-12T10:53:33;100300.03;;;36.57;26.69
73821;BME280;62150;43.582;1.456;2022-07-12T10:56:08;100296.63;;;36.50;25.54
73821;BME280;62150;43.582;1.456;2022-07-12T10:58:37;100297.44;;;36.99;25.77
73821;BME280;62150;43.582;1.456;2022-07-12T11:01:06;100290.22;;;37.00;25.74
73821;BME280;62150;43.582;1.456;2022-07-12T11:03:38;100292.34;;;36.79;25.82
73821;BME280;62150;43.582;1.456;2022-07-12T11:06:09;100288.38;;;36.82;26.15
73821;BME280;62150;43.582;1.456;2022-07-12T11:08:50;100289.38;;;37.41;25.37
73821;BME280;62150;43.582;1.456;2022-07-12T11:11:18;100296.03;;;37.08;25.77
73821;BME280;62150;43.582;1.456;2022-07-12T11:13:47;100292.28;;;37.39;26.25
73821;BME280;62150;43.582;1.456;2022-07-12T11:16:15;100293.31;;;37.50;24.77
73821;BME280;62150;43.582;1.456;2022-07-12T11:18:44;100291.72;;;37.37;25.33
73821;BME280;62150;43.582;1.456;2022-07-12T11:21:14;100287.16;;;37.49;24.40
73821;BME280;62150;43.582;1.456;2022-07-12T11:23:42;100279.56;;;37.58;24.27
73821;BME280;62150;43.582;1.456;2022-07-12T11:26:11;100279.13;;;37.38;23.58
73821;BME280;62150;43.582;1.456;2022-07-12T11:28:40;100279.28;;;37.13;24.30
73821;BME280;62150;43.582;1.456;2022-07-12T11:31:09;100279.69;;;36.86;25.29
73821;BME280;62150;43.582;1.456;2022-07-12T11:33:39;100277.25;;;37.62;24.26
73821;BME280;62150;43.582;1.456;2022-07-12T11:36:08;100268.84;;;37.23;24.72
73821;BME280;62150;43.582;1.456;2022-07-12T11:38:38;100275.53;;;37.67;24.13
73821;BME280;62150;43.582;1.456;2022-07-12T11:41:07;100272.28;;;37.77;25.53
73821;BME280;62150;43.582;1.456;2022-07-12T11:43:36;100269.22;;;37.85;23.36
73821;BME280;62150;43.582;1.456;2022-07-12T11:46:06;100268.47;;;38.13;23.60
73821;BME280;62150;43.582;1.456;2022-07-12T11:48:38;100273.72;;;38.19;24.14
73821;BME280;62150;43.582;1.456;2022-07-12T11:51:06;100270.47;;;38.58;23.21
73821;BME280;62150;43.582;1.456;2022-07-12T11:53:37;100261.34;;;38.59;23.43
73821;BME280;62150;43.582;1.456;2022-07-12T11:56:06;100264.06;;;39.04;23.42
73821;BME280;62150;43.582;1.456;2022-07-12T11:58:34;100266.19;;;38.90;23.35
73821;BME280;62150;43.582;1.456;2022-07-12T12:01:05;100249.50;;;38.71;22.85
73821;BME280;62150;43.582;1.456;2022-07-12T12:03:43;100251.03;;;39.46;22.54
73821;BME280;62150;43.582;1.456;2022-07-12T12:06:11;100248.34;;;39.84;22.42
73821;BME280;62150;43.582;1.456;2022-07-12T12:08:40;100254.91;;;39.55;21.79
73821;BME280;62150;43.582;1.456;2022-07-12T12:11:08;100244.94;;;38.72;22.06
73821;BME280;62150;43.582;1.456;2022-07-12T12:13:36;100240.06;;;38.69;22.72
73821;BME280;62150;43.582;1.456;2022-07-12T12:16:05;100241.41;;;39.50;22.02
73821;BME280;62150;43.582;1.456;2022-07-12T12:18:34;100243.13;;;38.61;22.37
73821;BME280;62150;43.582;1.456;2022-07-12T12:21:04;100246.78;;;39.16;21.79
73821;BME280;62150;43.582;1.456;2022-07-12T12:23:32;100246.75;;;39.00;21.19
73821;BME280;62150;43.582;1.456;2022-07-12T12:26:15;100249.06;;;38.34;22.24
73821;BME280;62150;43.582;1.456;2022-07-12T12:28:48;100241.44;;;38.71;23.25
73821;BME280;62150;43.582;1.456;2022-07-12T12:31:17;100241.28;;;38.49;22.43
73821;BME280;62150;43.582;1.456;2022-07-12T12:33:46;100241.63;;;38.25;23.24
73821;BME280;62150;43.582;1.456;2022-07-12T12:36:19;100238.00;;;38.47;22.60
73821;BME280;62150;43.582;1.456;2022-07-12T12:38:48;100235.75;;;38.84;22.92
73821;BME280;62150;43.582;1.456;2022-07-12T12:41:18;100240.19;;;39.07;22.62
73821;BME280;62150;43.582;1.456;2022-07-12T12:43:55;100233.38;;;38.88;22.34
73821;BME280;62150;43.582;1.456;2022-07-12T12:49:05;100231.34;;;38.21;23.06
73821;BME280;62150;43.582;1.456;2022-07-12T12:51:51;100224.72;;;38.12;21.51
73821;BME280;62150;43.582;1.456;2022-07-12T12:54:31;100234.09;;;38.38;21.69
73821;BME280;62150;43.582;1.456;2022-07-12T12:57:01;100229.41;;;38.45;21.46
73821;BME280;62150;43.582;1.456;2022-07-12T12:59:29;100228.19;;;38.53;21.85
73821;BME280;62150;43.582;1.456;2022-07-12T13:01:56;100226.44;;;38.59;22.30
73821;BME280;62150;43.582;1.456;2022-07-12T13:04:28;100222.66;;;38.88;22.42
73821;BME280;62150;43.582;1.456;2022-07-12T13:06:56;100224.47;;;38.26;21.54
73821;BME280;62150;43.582;1.456;2022-07-12T13:09:25;100220.03;;;38.19;21.88
73821;BME280;62150;43.582;1.456;2022-07-12T13:11:52;100217.22;;;38.54;21.63
73821;BME280;62150;43.582;1.456;2022-07-12T13:14:21;100217.53;;;38.41;22.14
73821;BME280;62150;43.582;1.456;2022-07-12T13:16:49;100206.94;;;38.51;21.22
73821;BME280;62150;43.582;1.456;2022-07-12T13:19:17;100194.59;;;39.12;21.44
73821;BME280;62150;43.582;1.456;2022-07-12T13:21:44;100202.38;;;39.31;21.85
73821;BME280;62150;43.582;1.456;2022-07-12T13:24:12;100198.19;;;39.01;20.03
73821;BME280;62150;43.582;1.456;2022-07-12T13:26:39;100204.41;;;38.73;20.51
73821;BME280;62150;43.582;1.456;2022-07-12T13:29:07;100200.53;;;38.52;21.76
73821;BME280;62150;43.582;1.456;2022-07-12T13:31:36;100200.50;;;38.36;20.44
73821;BME280;62150;43.582;1.456;2022-07-12T13:34:03;100199.38;;;38.48;20.34
73821;BME280;62150;43.582;1.456;2022-07-12T13:36:32;100199.28;;;38.72;19.58
73821;BME280;62150;43.582;1.456;2022-07-12T13:38:59;100190.91;;;38.85;19.77
73821;BME280;62150;43.582;1.456;2022-07-12T13:41:47;100189.28;;;39.17;20.68
73821;BME280;62150;43.582;1.456;2022-07-12T13:44:14;100203.94;;;38.76;20.00
73821;BME280;62150;43.582;1.456;2022-07-12T13:46:43;100198.53;;;38.60;19.61
73821;BME280;62150;43.582;1.456;2022-07-12T13:49:11;100195.22;;;38.86;20.63
73821;BME280;62150;43.582;1.456;2022-07-12T13:51:38;100188.22;;;39.18;19.50
73821;BME280;62150;43.582;1.456;2022-07-12T13:54:06;100186.69;;;39.61;19.88
73821;BME280;62150;43.582;1.456;2022-07-12T13:56:34;100192.28;;;39.38;18.36
73821;BME280;62150;43.582;1.456;2022-07-12T13:59:02;100186.91;;;39.38;18.62
73821;BME280;62150;43.582;1.456;2022-07-12T14:01:30;100177.88;;;38.94;18.71
73821;BME280;62150;43.582;1.456;2022-07-12T14:03:59;100179.25;;;38.96;18.67
73821;BME280;62150;43.582;1.456;2022-07-12T14:06:28;100187.78;;;38.60;18.05
73821;BME280;62150;43.582;1.456;2022-07-12T14:08:57;100182.63;;;39.03;19.13
73821;BME280;62150;43.582;1.456;2022-07-12T14:11:24;100182.53;;;38.36;18.91
73821;BME280;62150;43.582;1.456;2022-07-12T14:13:52;100193.03;;;38.54;19.15
73821;BME280;62150;43.582;1.456;2022-07-12T14:16:19;100181.50;;;37.97;20.06
73821;BME280;62150;43.582;1.456;2022-07-12T14:18:47;100187.47;;;37.87;20.16
73821;BME280;62150;43.582;1.456;2022-07-12T14:21:17;100188.19;;;38.23;20.36
73821;BME280;62150;43.582;1.456;2022-07-12T14:23:44;100180.66;;;38.37;18.93
73821;BME280;62150;43.582;1.456;2022-07-12T14:26:12;100169.50;;;38.90;19.18
73821;BME280;62150;43.582;1.456;2022-07-12T14:28:42;100178.19;;;38.97;19.14
73821;BME280;62150;43.582;1.456;2022-07-12T14:31:10;100181.13;;;38.62;18.51
73821;BME280;62150;43.582;1.456;2022-07-12T14:33:37;100173.09;;;38.79;19.08
73821;BME280;62150;43.582;1.456;2022-07-12T14:36:05;100171.53;;;38.66;18.97
73821;BME280;62150;43.582;1.456;2022-07-12T14:38:34;100165.16;;;39.22;20.05
73821;BME280;62150;43.582;1.456;2022-07-12T14:41:02;100170.06;;;38.92;19.53
73821;BME280;62150;43.582;1.456;2022-07-12T14:43:29;100168.16;;;39.43;19.88
73821;BME280;62150;43.582;1.456;2022-07-12T14:45:57;100170.28;;;38.57;19.62
73821;BME280;62150;43.582;1.456;2022-07-12T14:48:24;100175.06;;;38.38;20.20
73821;BME280;62150;43.582;1.456;2022-07-12T14:50:52;100171.13;;;38.74;19.43
73821;BME280;62150;43.582;1.456;2022-07-12T14:53:20;100159.56;;;38.74;19.72
73821;BME280;62150;43.582;1.456;2022-07-12T14:55:49;100163.50;;;38.54;20.01
73821;BME280;62150;43.582;1.456;2022-07-12T14:58:19;100162.56;;;38.61;19.82
73821;BME280;62150;43.582;1.456;2022-07-12T15:00:47;100155.78;;;38.41;19.95
73821;BME280;62150;43.582;1.456;2022-07-12T15:03:14;100161.16;;;38.13;20.80
73821;BME280;62150;43.582;1.456;2022-07-12T15:05:42;100153.78;;;38.65;20.16
73821;BME280;62150;43.582;1.456;2022-07-12T15:08:12;100143.59;;;39.17;19.34
73821;BME280;62150;43.582;1.456;2022-07-12T15:10:39;100133.38;;;38.64;19.21
73821;BME280;62150;43.582;1.456;2022-07-12T15:13:08;100137.66;;;38.82;17.95
73821;BME280;62150;43.582;1.456;2022-07-12T15:15:36;100145.44;;;39.34;18.16
73821;BME280;62150;43.582;1.456;2022-07-12T15:18:04;100145.34;;;39.07;18.13
73821;BME280;62150;43.582;1.456;2022-07-12T15:20:31;100142.66;;;38.73;17.35
73821;BME280;62150;43.582;1.456;2022-07-12T15:22:59;100131.41;;;38.60;16.12
73821;BME280;62150;43.582;1.456;2022-07-12T15:25:27;100138.66;;;38.76;14.80
73821;BME280;62150;43.582;1.456;2022-07-12T15:27:54;100131.66;;;38.58;13.83
73821;BME280;62150;43.582;1.456;2022-07-12T15:30:23;100134.66;;;38.95;13.69
73821;BME280;62150;43.582;1.456;2022-07-12T15:32:51;100124.44;;;38.47;14.00
73821;BME280;62150;43.582;1.456;2022-07-12T15:35:21;100119.28;;;38.74;14.91
73821;BME280;62150;43.582;1.456;2022-07-12T15:37:49;100118.59;;;39.00;13.76
73821;BME280;62150;43.582;1.456;2022-07-12T15:40:16;100111.78;;;39.48;14.20
73821;BME280;62150;43.582;1.456;2022-07-12T15:42:44;100112.69;;;39.37;14.67
73821;BME280;62150;43.582;1.456;2022-07-12T15:45:13;100108.84;;;39.33;16.06
73821;BME280;62150;43.582;1.456;2022-07-12T15:47:42;100119.44;;;39.61;17.45
73821;BME280;62150;43.582;1.456;2022-07-12T15:50:10;100114.56;;;39.58;18.13
73821;BME280;62150;43.582;1.456;2022-07-12T15:52:38;100112.63;;;39.53;18.19
73821;BME280;62150;43.582;1.456;2022-07-12T15:55:23;100111.06;;;39.36;18.62
73821;BME280;62150;43.582;1.456;2022-07-12T15:57:51;100104.94;;;39.62;18.65
73821;BME280;62150;43.582;1.456;2022-07-12T16:00:20;100102.94;;;39.74;18.44
73821;BME280;62150;43.582;1.456;2022-07-12T16:02:49;100109.16;;;39.14;19.09
73821;BME280;62150;43.582;1.456;2022-07-12T16:05:17;100106.81;;;39.01;19.25
73821;BME280;62150;43.582;1.456;2022-07-12T16:07:45;100101.34;;;39.35;19.64
73821;BME280;62150;43.582;1.456;2022-07-12T16:10:13;100111.19;;;38.91;19.56
73821;BME280;62150;43.582;1.456;2022-07-12T16:12:43;100105.63;;;38.75;19.41
73821;BME280;62150;43.582;1.456;2022-07-12T16:15:11;100097.84;;;38.96;19.76
73821;BME280;62150;43.582;1.456;2022-07-12T16:17:39;100102.16;;;39.13;19.35
73821;BME280;62150;43.582;1.456;2022-07-12T16:20:10;100098.75;;;39.40;18.90
73821;BME280;62150;43.582;1.456;2022-07-12T16:22:38;100094.28;;;39.45;19.54
73821;BME280;62150;43.582;1.456;2022-07-12T16:25:06;100093.81;;;39.75;19.15
73821;BME280;62150;43.582;1.456;2022-07-12T16:27:33;100105.50;;;39.64;18.48
73821;BME280;62150;43.582;1.456;2022-07-12T16:30:01;100096.75;;;39.52;19.28
73821;BME280;62150;43.582;1.456;2022-07-12T16:32:28;100109.78;;;39.21;18.57
73821;BME280;62150;43.582;1.456;2022-07-12T16:34:56;100104.44;;;38.88;18.25
73821;BME280;62150;43.582;1.456;2022-07-12T16:37:25;100104.19;;;39.45;18.40
73821;BME280;62150;43.582;1.456;2022-07-12T16:39:52;100101.50;;;39.45;18.23
73821;BME280;62150;43.582;1.456;2022-07-12T16:42:20;100096.22;;;39.11;18.56
73821;BME280;62150;43.582;1.456;2022-07-12T16:44:48;100100.41;;;39.02;17.40
73821;BME280;62150;43.582;1.456;2022-07-12T16:47:15;100097.72;;;39.02;17.46
73821;BME280;62150;43.582;1.456;2022-07-12T16:49:43;100117.88;;;38.09;18.47
73821;BME280;62150;43.582;1.456;2022-07-12T16:52:10;100105.44;;;38.65;17.77
73821;BME280;62150;43.582;1.456;2022-07-12T16:54:39;100106.59;;;39.03;16.40
73821;BME280;62150;43.582;1.456;2022-07-12T16:57:07;100100.22;;;39.09;17.02
73821;BME280;62150;43.582;1.456;2022-07-12T16:59:34;100102.56;;;38.55;17.08
73821;BME280;62150;43.582;1.456;2022-07-12T17:02:02;100094.72;;;38.65;16.39
73821;BME280;62150;43.582;1.456;2022-07-12T17:04:30;100102.84;;;38.70;16.83
73821;BME280;62150;43.582;1.456;2022-07-12T17:06:58;100100.97;;;39.26;16.90
73821;BME280;62150;43.582;1.456;2022-07-12T17:09:25;100093.66;;;39.21;16.41
73821;BME280;62150;43.582;1.456;2022-07-12T17:11:55;100106.19;;;38.61;16.46
73821;BME280;62150;43.582;1.456;2022-07-12T17:14:23;100096.50;;;38.60;16.16
73821;BME280;62150;43.582;1.456;2022-07-12T17:16:50;100102.28;;;38.68;16.25
73821;BME280;62150;43.582;1.456;2022-07-12T17:19:18;100106.16;;;39.11;16.71
73821;BME280;62150;43.582;1.456;2022-07-12T17:21:45;100111.31;;;38.79;16.33
73821;BME280;62150;43.582;1.456;2022-07-12T17:24:13;100110.03;;;38.53;16.71
73821;BME280;62150;43.582;1.456;2022-07-12T17:26:41;100106.34;;;38.71;16.53
73821;BME280;62150;43.582;1.456;2022-07-12T17:29:11;100111.53;;;38.94;16.44
73821;BME280;62150;43.582;1.456;2022-07-12T17:31:38;100110.13;;;38.92;16.38
73821;BME280;62150;43.582;1.456;2022-07-12T17:34:06;100112.13;;;38.63;16.65
73821;BME280;62150;43.582;1.456;2022-07-12T17:36:33;100113.56;;;38.87;16.80
73821;BME280;62150;43.582;1.456;2022-07-12T17:39:01;100117.53;;;38.34;17.46
73821;BME280;62150;43.582;1.456;2022-07-12T17:41:28;100119.88;;;38.02;16.98
73821;BME280;62150;43.582;1.456;2022-07-12T17:43:56;100122.94;;;37.94;17.61
73821;BME280;62150;43.582;1.456;2022-07-12T17:46:25;100121.06;;;37.66;17.61
73821;BME280;62150;43.582;1.456;2022-07-12T17:48:53;100120.81;;;38.08;17.44
73821;BME280;62150;43.582;1.456;2022-07-12T17:51:21;100125.00;;;37.75;17.40
73821;BME280;62150;43.582;1.456;2022-07-12T17:53:48;100125.81;;;37.76;17.49
73821;BME280;62150;43.582;1.456;2022-07-12T17:56:16;100120.59;;;37.46;18.30
73821;BME280;62150;43.582;1.456;2022-07-12T17:58:43;100117.09;;;37.69;17.93
73821;BME280;62150;43.582;1.456;2022-07-12T18:01:13;100125.81;;;37.76;17.88
73821;BME280;62150;43.582;1.456;2022-07-12T18:03:43;100130.63;;;37.50;18.02
73821;BME280;62150;43.582;1.456;2022-07-12T18:06:11;100119.31;;;37.60;18.15
73821;BME280;62150;43.582;1.456;2022-07-12T18:08:40;100131.47;;;37.39;18.71
73821;BME280;62150;43.582;1.456;2022-07-12T18:11:08;100132.19;;;37.35;18.52
73821;BME280;62150;43.582;1.456;2022-07-12T18:13:49;100127.06;;;37.21;18.74
73821;BME280;62150;43.582;1.456;2022-07-12T18:16:35;100130.19;;;37.18;18.71
73821;BME280;62150;43.582;1.456;2022-07-12T18:19:04;100133.41;;;36.74;19.32
73821;BME280;62150;43.582;1.456;2022-07-12T18:21:32;100133.44;;;36.32;18.57
73821;BME280;62150;43.582;1.456;2022-07-12T18:24:00;100128.22;;;36.37;18.82
73821;BME280;62150;43.582;1.456;2022-07-12T18:26:28;100144.44;;;36.24;19.14
73821;BME280;62150;43.582;1.456;2022-07-12T18:28:57;100148.13;;;35.93;19.02
73821;BME280;62150;43.582;1.456;2022-07-12T18:31:25;100149.09;;;35.62;18.66
73821;BME280;62150;43.582;1.456;2022-07-12T18:33:52;100146.34;;;35.50;18.58
73821;BME280;62150;43.582;1.456;2022-07-12T18:36:21;100146.41;;;35.44;18.90
73821;BME280;62150;43.582;1.456;2022-07-12T18:38:49;100146.50;;;35.55;18.93
73821;BME280;62150;43.582;1.456;2022-07-12T18:41:16;100148.25;;;35.43;18.74
73821;BME280;62150;43.582;1.456;2022-07-12T18:43:45;100154.66;;;35.42;18.85
73821;BME280;62150;43.582;1.456;2022-07-12T18:46:13;100152.09;;;35.04;19.41
73821;BME280;62150;43.582;1.456;2022-07-12T18:48:40;100149.94;;;35.19;19.34
73821;BME280;62150;43.582;1.456;2022-07-12T18:51:08;100151.22;;;34.92;19.16
73821;BME280;62150;43.582;1.456;2022-07-12T18:53:37;100163.69;;;34.98;19.23
73821;BME280;62150;43.582;1.456;2022-07-12T18:56:05;100158.44;;;34.85;19.42